Time;durP1;ratioP1;P1;durP2;ratioP2;P2;SDS_P1;SDS_P2;PMS_P1;PMS_P2;Temp;Humidity;BMP_temperature;BMP_pressure;BME280_temperature;BME280_humidity;BME280_pressure;Samples;Min_cycle;Max_cycle;Signal;HPM_P1;HPM_P2
2022/04/12 00:03:21;;;;;;;;;0.00;0.00;;;;;;;;2;288083543;288083543;-78
2022/04/12 00:11:36;;;;;;;;;0.00;0.00;;;;;;;;2;261076903;261076903;-79
2022/04/12 00:21:04;;;;;;;;;0.00;0.00;;;;;;;;2;288087502;288087502;-79
2022/04/12 00:29:20;;;;;;;;;0.00;0.00;;;;;;;;2;261077900;261077900;-79
2022/04/12 00:38:47;;;;;;;;;0.00;0.00;;;;;;;;2;288085832;288085832;-79
2022/04/12 00:47:03;;;;;;;;;0.00;0.00;;;;;;;;2;261074947;261074947;-76
2022/04/12 00:56:31;;;;;;;;;0.00;0.00;;;;;;;;2;288086865;288086865;-77
2022/04/12 01:04:46;;;;;;;;;0.00;0.00;;;;;;;;2;261075280;261075280;-77
2022/04/12 01:14:14;;;;;;;;;0.00;0.00;;;;;;;;2;288081702;288081702;-77
2022/04/12 01:22:30;;;;;;;;;0.00;0.00;;;;;;;;2;261077939;261077939;-77
2022/04/12 01:31:58;;;;;;;;;0.00;0.00;;;;;;;;2;288084259;288084259;-76
2022/04/12 01:40:14;;;;;;;;;0.00;0.00;;;;;;;;2;261075968;261075968;-77
2022/04/12 01:49:41;;;;;;;;;0.00;0.00;;;;;;;;2;288085553;288085553;-77
2022/04/12 01:57:56;;;;;;;;;0.00;0.00;;;;;;;;2;261076762;261076762;-77
2022/04/12 02:07:24;;;;;;;;;0.00;0.00;;;;;;;;2;288083783;288083783;-77
2022/04/12 02:15:40;;;;;;;;;0.00;0.00;;;;;;;;2;261075673;261075673;-76
2022/04/12 02:25:07;;;;;;;;;0.00;0.00;;;;;;;;2;288084358;288084358;-76
2022/04/12 02:33:23;;;;;;;;;0.00;0.00;;;;;;;;2;261075219;261075219;-76
2022/04/12 02:42:50;;;;;;;;;0.00;0.00;;;;;;;;2;288083581;288083581;-77
2022/04/12 02:51:06;;;;;;;;;0.00;0.00;;;;;;;;2;261075809;261075809;-77
2022/04/12 03:00:34;;;;;;;;;0.00;0.00;;;;;;;;2;288085238;288085238;-77
2022/04/12 03:08:49;;;;;;;;;0.00;0.00;;;;;;;;2;261076496;261076496;-76
2022/04/12 03:18:17;;;;;;;;;0.00;0.00;;;;;;;;2;288085803;288085803;-76
2022/04/12 03:26:32;;;;;;;;;0.00;0.00;;;;;;;;2;261078029;261078029;-76
2022/04/12 03:36:00;;;;;;;;;0.00;0.00;;;;;;;;2;288082608;288082608;-76
2022/04/12 03:44:15;;;;;;;;;0.00;0.00;;;;;;;;2;261077109;261077109;-76
2022/04/12 03:53:43;;;;;;;;;0.00;0.00;;;;;;;;2;288085776;288085776;-76
2022/04/12 04:01:58;;;;;;;;;0.00;0.00;;;;;;;;2;261073918;261073918;-77
2022/04/12 04:11:26;;;;;;;;;0.00;0.00;;;;;;;;2;288085819;288085819;-77
2022/04/12 04:19:41;;;;;;;;;0.00;0.00;;;;;;;;2;261075610;261075610;-77
2022/04/12 04:29:09;;;;;;;;;0.00;0.00;;;;;;;;2;288085880;288085880;-78
2022/04/12 04:37:24;;;;;;;;;0.00;0.00;;;;;;;;2;261077102;261077102;-78
2022/04/12 04:46:52;;;;;;;;;0.00;0.00;;;;;;;;2;288083475;288083475;-76
2022/04/12 04:55:07;;;;;;;;;0.00;0.00;;;;;;;;2;261076350;261076350;-76
2022/04/12 05:04:35;;;;;;;;;0.00;0.00;;;;;;;;2;288085078;288085078;-76
2022/04/12 05:12:50;;;;;;;;;0.00;0.00;;;;;;;;2;261076368;261076368;-77
2022/04/12 05:22:18;;;;;;;;;0.00;0.00;;;;;;;;2;288083187;288083187;-77
2022/04/12 05:30:34;;;;;;;;;0.00;0.00;;;;;;;;2;261078112;261078112;-77
2022/04/12 05:40:04;;;;;;;;;0.00;0.00;;;;;;;;2;288084825;288084825;-77
2022/04/12 05:48:20;;;;;;;;;0.00;0.00;;;;;;;;2;261076800;261076800;-77
2022/04/12 05:57:52;;;;;;;;;0.00;0.00;;;;;;;;2;288084477;288084477;-77
2022/04/12 06:06:07;;;;;;;;;0.00;0.00;;;;;;;;2;261077259;261077259;-77
2022/04/12 06:15:35;;;;;;;;;0.00;0.00;;;;;;;;2;288084723;288084723;-77
2022/04/12 06:23:50;;;;;;;;;0.00;0.00;;;;;;;;2;261079585;261079585;-77
2022/04/12 06:33:18;;;;;;;;;0.00;0.00;;;;;;;;2;288087634;288087634;-76
2022/04/12 06:41:33;;;;;;;;;0.00;0.00;;;;;;;;2;261079338;261079338;-76
2022/04/12 06:51:01;;;;;;;;;0.00;0.00;;;;;;;;2;288083140;288083140;-78
2022/04/12 06:59:16;;;;;;;;;0.00;0.00;;;;;;;;2;261080581;261080581;-79
2022/04/12 07:08:44;;;;;;;;;0.00;0.00;;;;;;;;2;288085269;288085269;-78
2022/04/12 07:16:59;;;;;;;;;0.00;0.00;;;;;;;;2;261077870;261077870;-77
2022/04/12 07:26:27;;;;;;;;;0.00;0.00;;;;;;;;2;288081658;288081658;-77
2022/04/12 07:34:42;;;;;;;;;0.00;0.00;;;;;;;;2;261081321;261081321;-78
2022/04/12 07:44:10;;;;;;;;;0.00;0.00;;;;;;;;2;288081945;288081945;-77
2022/04/12 07:52:25;;;;;;;;;0.00;0.00;;;;;;;;2;261076823;261076823;-77
2022/04/12 08:01:53;;;;;;;;;0.00;0.00;;;;;;;;2;288085781;288085781;-77
2022/04/12 08:10:08;;;;;;;;;0.00;0.00;;;;;;;;2;261075854;261075854;-78
2022/04/12 08:19:36;;;;;;;;;0.00;0.00;;;;;;;;2;288081966;288081966;-78
2022/04/12 08:27:51;;;;;;;;;0.00;0.00;;;;;;;;2;261075124;261075124;-77
2022/04/12 08:37:19;;;;;;;;;0.00;0.00;;;;;;;;2;288084692;288084692;-77
2022/04/12 08:45:36;;;;;;;;;0.00;0.00;;;;;;;;2;261074832;261074832;-77
2022/04/12 08:55:04;;;;;;;;;0.00;0.00;;;;;;;;2;288085108;288085108;-77
2022/04/12 09:03:20;;;;;;;;;0.00;0.00;;;;;;;;2;261076944;261076944;-77
2022/04/12 09:12:47;;;;;;;;;0.00;0.00;;;;;;;;2;288086468;288086468;-76
2022/04/12 09:21:13;;;;;;;;;0.00;0.00;;;;;;;;2;261074317;261074317;-77
2022/04/12 09:30:41;;;;;;;;;0.00;0.00;;;;;;;;2;288084464;288084464;-77
2022/04/12 09:38:58;;;;;;;;;0.00;0.00;;;;;;;;2;261076146;261076146;-77
2022/04/12 09:48:35;;;;;;;;;0.00;0.00;;;;;;;;2;288082977;288082977;-76
2022/04/12 09:56:52;;;;;;;;;0.00;0.00;;;;;;;;2;261075260;261075260;-76
2022/04/12 10:06:20;;;;;;;;;0.00;0.00;;;;;;;;2;288083942;288083942;-76
2022/04/12 10:14:36;;;;;;;;;0.00;0.00;;;;;;;;2;261075463;261075463;-77
2022/04/12 10:24:05;;;;;;;;;0.00;0.00;;;;;;;;2;288084462;288084462;-76
2022/04/12 10:32:22;;;;;;;;;0.00;0.00;;;;;;;;2;261079718;261079718;-77
2022/04/12 10:41:51;;;;;;;;;0.00;0.00;;;;;;;;2;288083753;288083753;-77
2022/04/12 10:50:08;;;;;;;;;0.00;0.00;;;;;;;;2;261076531;261076531;-77
2022/04/12 10:59:41;;;;;;;;;0.00;0.00;;;;;;;;2;288084658;288084658;-77
2022/04/12 11:07:57;;;;;;;;;0.00;0.00;;;;;;;;2;261075546;261075546;-77
2022/04/12 11:17:29;;;;;;;;;0.00;0.00;;;;;;;;2;288086263;288086263;-77
2022/04/12 11:25:45;;;;;;;;;0.00;0.00;;;;;;;;2;261074466;261074466;-77
2022/04/12 11:35:13;;;;;;;;;0.00;0.00;;;;;;;;2;288086052;288086052;-77
2022/04/12 11:43:28;;;;;;;;;0.00;0.00;;;;;;;;2;261077747;261077747;-77
2022/04/12 11:52:57;;;;;;;;;0.00;0.00;;;;;;;;2;288091694;288091694;-79
2022/04/12 12:01:13;;;;;;;;;0.00;0.00;;;;;;;;2;261074902;261074902;-79
2022/04/12 12:10:41;;;;;;;;;0.00;0.00;;;;;;;;2;288085346;288085346;-80
2022/04/12 12:18:57;;;;;;;;;0.00;0.00;;;;;;;;2;261076325;261076325;-78
2022/04/12 12:28:26;;;;;;;;;0.00;0.00;;;;;;;;2;288081343;288081343;-79
2022/04/12 12:36:48;;;;;;;;;0.00;0.00;;;;;;;;2;261077919;261077919;-79
2022/04/12 12:46:18;;;;;;;;;0.00;0.00;;;;;;;;2;288087246;288087246;-80
2022/04/12 12:54:33;;;;;;;;;0.00;0.00;;;;;;;;2;261081384;261081384;-81
2022/04/12 13:04:01;;;;;;;;;0.00;0.00;;;;;;;;2;288085692;288085692;-81
2022/04/12 13:12:17;;;;;;;;;0.00;0.00;;;;;;;;2;261077327;261077327;-82
2022/04/12 13:21:46;;;;;;;;;0.00;0.00;;;;;;;;2;288082530;288082530;-81
2022/04/12 13:30:05;;;;;;;;;0.00;0.00;;;;;;;;2;261076483;261076483;-81
2022/04/12 13:39:33;;;;;;;;;0.00;0.00;;;;;;;;2;288083719;288083719;-83
2022/04/12 13:47:48;;;;;;;;;0.00;0.00;;;;;;;;2;261075303;261075303;-80
2022/04/12 13:57:16;;;;;;;;;0.00;0.00;;;;;;;;2;288086130;288086130;-82
2022/04/12 14:05:31;;;;;;;;;0.00;0.00;;;;;;;;2;261080913;261080913;-79
2022/04/12 14:14:59;;;;;;;;;0.00;0.00;;;;;;;;2;288083901;288083901;-81
2022/04/12 14:23:14;;;;;;;;;0.00;0.00;;;;;;;;2;261075990;261075990;-82
2022/04/12 14:32:42;;;;;;;;;68.00;52.50;;;;;;;;2;288086611;288086611;-81
2022/04/12 14:40:57;;;;;;;;;61.00;54.50;;;;;;;;2;261076236;261076236;-82
2022/04/12 14:50:25;;;;;;;;;65.00;50.50;;;;;;;;2;288082203;288082203;-81
2022/04/12 14:58:41;;;;;;;;;31.00;27.00;;;;;;;;2;261078335;261078335;-82
2022/04/12 15:08:08;;;;;;;;;37.00;31.00;;;;;;;;2;288083451;288083451;-84
2022/04/12 15:16:24;;;;;;;;;20.00;15.00;;;;;;;;2;261078260;261078260;-78
2022/04/12 15:25:52;;;;;;;;;20.00;18.00;;;;;;;;2;288087561;288087561;-79
2022/04/12 15:34:07;;;;;;;;;2.00;2.00;;;;;;;;2;261076553;261076553;-78
2022/04/12 15:43:37;;;;;;;;;1.50;1.50;;;;;;;;2;288086160;288086160;-81
2022/04/12 15:51:53;;;;;;;;;0.50;0.50;;;;;;;;2;261074449;261074449;-84
2022/04/12 16:01:20;;;;;;;;;7.00;7.00;;;;;;;;2;288085606;288085606;-82
2022/04/12 16:09:37;;;;;;;;;2.00;2.00;;;;;;;;2;261077445;261077445;-81
2022/04/12 16:19:05;;;;;;;;;7.00;7.00;;;;;;;;2;288082290;288082290;-82
2022/04/12 16:27:20;;;;;;;;;8.50;8.50;;;;;;;;2;261076962;261076962;-79
2022/04/12 16:36:48;;;;;;;;;17.00;16.50;;;;;;;;2;288083021;288083021;-76
2022/04/12 16:45:04;;;;;;;;;18.50;17.00;;;;;;;;2;261075284;261075284;-80
2022/04/12 16:54:32;;;;;;;;;19.00;17.50;;;;;;;;2;288087129;288087129;-75
2022/04/12 17:02:48;;;;;;;;;18.00;17.00;;;;;;;;2;261076091;261076091;-75
2022/04/12 17:12:16;;;;;;;;;19.00;17.50;;;;;;;;2;288086663;288086663;-75
2022/04/12 17:20:32;;;;;;;;;24.00;21.00;;;;;;;;2;261079135;261079135;-75
2022/04/12 17:29:59;;;;;;;;;22.50;20.00;;;;;;;;2;288088800;288088800;-75
2022/04/12 17:38:15;;;;;;;;;26.50;23.00;;;;;;;;2;261077204;261077204;-75
2022/04/12 17:47:42;;;;;;;;;23.00;20.50;;;;;;;;2;288084901;288084901;-75
2022/04/12 17:55:58;;;;;;;;;25.50;22.50;;;;;;;;2;261075859;261075859;-76
2022/04/12 18:05:29;;;;;;;;;24.00;21.00;;;;;;;;2;288084438;288084438;-76
2022/04/12 18:13:44;;;;;;;;;27.00;23.50;;;;;;;;2;261083274;261083274;-74
2022/04/12 18:23:14;;;;;;;;;27.00;24.00;;;;;;;;2;288087803;288087803;-75
2022/04/12 18:31:29;;;;;;;;;23.00;20.50;;;;;;;;2;261080068;261080068;-75
2022/04/12 18:40:57;;;;;;;;;23.50;20.50;;;;;;;;2;288086267;288086267;-76
2022/04/12 18:49:12;;;;;;;;;25.50;22.50;;;;;;;;2;261075766;261075766;-76
2022/04/12 18:58:40;;;;;;;;;23.50;20.50;;;;;;;;2;288083704;288083704;-76
2022/04/12 19:06:55;;;;;;;;;28.00;25.00;;;;;;;;2;261076631;261076631;-76
2022/04/12 19:16:23;;;;;;;;;31.00;27.50;;;;;;;;2;288083709;288083709;-76
2022/04/12 19:24:39;;;;;;;;;25.50;22.50;;;;;;;;2;261079853;261079853;-75
2022/04/12 19:37:26;;;;;;;;;37.50;33.50;;;;;;;;2;288086552;288086552;-75
2022/04/12 19:45:41;;;;;;;;;34.00;30.50;;;;;;;;2;261079071;261079071;-75
2022/04/12 19:55:12;;;;;;;;;41.50;37.50;;;;;;;;2;288086002;288086002;-75
2022/04/12 20:03:28;;;;;;;;;31.50;28.00;;;;;;;;2;261078511;261078511;-75
2022/04/12 20:12:55;;;;;;;;;33.50;29.50;;;;;;;;2;288084565;288084565;-76
2022/04/12 20:21:11;;;;;;;;;848.00;848.00;;;;;;;;2;261077015;261077015;-75
2022/04/12 20:30:39;;;;;;;;;851.50;851.50;;;;;;;;2;288084669;288084669;-75
2022/04/12 20:38:55;;;;;;;;;853.50;853.00;;;;;;;;2;261076521;261076521;-75
2022/04/12 20:48:23;;;;;;;;;866.50;863.00;;;;;;;;2;288086202;288086202;-75
2022/04/12 20:56:41;;;;;;;;;866.50;863.00;;;;;;;;2;261076926;261076926;-76
2022/04/12 21:06:09;;;;;;;;;851.00;851.00;;;;;;;;2;288085527;288085527;-75
2022/04/12 21:14:24;;;;;;;;;855.00;854.50;;;;;;;;2;261077729;261077729;-75
2022/04/12 21:23:52;;;;;;;;;42.50;38.00;;;;;;;;2;288086669;288086669;-76
2022/04/12 21:32:07;;;;;;;;;838.50;838.50;;;;;;;;2;261076797;261076797;-75
2022/04/12 21:41:35;;;;;;;;;857.50;856.00;;;;;;;;2;288083158;288083158;-75
2022/04/12 21:49:50;;;;;;;;;841.00;841.00;;;;;;;;2;261078745;261078745;-75
2022/04/12 21:59:21;;;;;;;;;24.50;21.50;;;;;;;;2;288086850;288086850;-76
2022/04/12 22:07:41;;;;;;;;;853.50;853.00;;;;;;;;2;261080738;261080738;-76
2022/04/12 22:17:08;;;;;;;;;847.00;847.00;;;;;;;;2;288083986;288083986;-76
2022/04/12 22:25:24;;;;;;;;;26.00;24.00;;;;;;;;2;261079923;261079923;-77
2022/04/12 22:34:52;;;;;;;;;856.00;855.00;;;;;;;;2;288080542;288080542;-78
2022/04/12 22:43:07;;;;;;;;;849.00;849.00;;;;;;;;2;261076227;261076227;-77
2022/04/12 22:52:35;;;;;;;;;856.00;855.00;;;;;;;;2;288079732;288079732;-77
2022/04/12 23:00:50;;;;;;;;;853.00;853.00;;;;;;;;2;261074396;261074396;-77
2022/04/12 23:10:18;;;;;;;;;859.00;857.00;;;;;;;;2;288087558;288087558;-77
2022/04/12 23:18:33;;;;;;;;;863.00;860.00;;;;;;;;2;261076241;261076241;-77
2022/04/12 23:28:12;;;;;;;;;861.00;858.50;;;;;;;;2;288085759;288085759;-77
2022/04/12 23:36:27;;;;;;;;;861.00;858.50;;;;;;;;2;261077053;261077053;-77
2022/04/12 23:45:55;;;;;;;;;863.50;860.50;;;;;;;;2;288083280;288083280;-77
2022/04/12 23:54:10;;;;;;;;;864.50;861.50;;;;;;;;2;261078314;261078314;-77
